createdAt,value
2023-01-30T00:00:55.515Z,91.29
2023-01-30T00:06:27.074Z,90.93
2023-01-30T00:11:58.935Z,90.95
2023-01-30T00:17:30.521Z,91.93
2023-01-30T00:23:02.384Z,91.81
2023-01-30T00:28:34.041Z,91.66
2023-01-30T00:34:05.761Z,90.98
2023-01-30T00:39:41.847Z,90.39
2023-01-30T00:45:13.636Z,90.47
2023-01-30T00:50:45.383Z,90.84
2023-01-30T00:56:17.339Z,90.27
2023-01-30T01:01:48.777Z,91.83
2023-01-30T01:07:22.127Z,92.74
2023-01-30T01:12:52.340Z,94.13
2023-01-30T01:18:23.993Z,94.08
2023-01-30T01:23:55.713Z,93.28
2023-01-30T01:29:27.478Z,92.47
2023-01-30T01:34:59.210Z,91.93
2023-01-30T01:40:37.423Z,90.83
2023-01-30T01:46:09.146Z,90.77
2023-01-30T01:51:40.797Z,91.6
2023-01-30T01:57:12.501Z,92.69
2023-01-30T02:02:44.247Z,95.17
2023-01-30T02:08:16.007Z,97.59
2023-01-30T02:13:47.932Z,97.61
2023-01-30T02:19:19.381Z,98.05
2023-01-30T02:24:51.096Z,96.32
2023-01-30T02:30:23.094Z,95.69
2023-01-30T02:35:54.514Z,94.51
2023-01-30T02:41:30.700Z,95.43
2023-01-30T02:47:02.309Z,96.7
2023-01-30T02:52:34.116Z,98.27
2023-01-30T02:58:05.784Z,98.12
2023-01-30T03:03:37.530Z,97.61
2023-01-30T03:09:09.204Z,96.79
2023-01-30T03:14:40.890Z,95.4
2023-01-30T03:20:12.793Z,96.53
2023-01-30T03:25:44.584Z,95.85
2023-01-30T03:31:16.253Z,94.64
2023-01-30T03:36:47.805Z,92.7
2023-01-30T03:42:25.876Z,91.54
2023-01-30T03:47:57.799Z,90.62
2023-01-30T03:53:29.459Z,90.29
2023-01-30T03:59:01.140Z,90.91
2023-01-30T04:04:32.913Z,91.27
2023-01-30T04:10:04.454Z,91.5
2023-01-30T04:15:36.400Z,91.11
2023-01-30T04:21:08.091Z,90.88
2023-01-30T04:26:39.830Z,90.64
2023-01-30T04:32:11.523Z,89.32
2023-01-30T04:37:43.245Z,89.13
2023-01-30T04:43:21.371Z,89.48
2023-01-30T04:48:53.041Z,90.23
2023-01-30T04:54:24.775Z,89.45
2023-01-30T04:59:56.464Z,89.38
2023-01-30T05:05:28.160Z,89.16
2023-01-30T05:10:59.888Z,89.77
2023-01-30T05:16:31.634Z,90.53
2023-01-30T05:22:03.378Z,91.29
2023-01-30T05:27:35.056Z,90.93
2023-01-30T05:33:06.755Z,90.93
2023-01-30T05:38:38.519Z,90.36
2023-01-30T05:44:16.816Z,89.51
2023-01-30T05:49:48.472Z,89.91
2023-01-30T05:55:20.880Z,89.12
2023-01-30T06:00:51.809Z,89.7
2023-01-30T06:06:23.500Z,89.76
2023-01-30T06:11:55.212Z,89.49
2023-01-30T06:17:30.152Z,89.88
2023-01-30T06:22:58.746Z,89.62
2023-01-30T06:28:30.457Z,89.82
2023-01-30T06:34:02.245Z,90.36
2023-01-30T06:39:33.805Z,90.07
2023-01-30T06:45:10.095Z,90.26
2023-01-30T06:50:41.886Z,90.79
2023-01-30T06:56:13.568Z,90.54
2023-01-30T07:01:45.277Z,90.5
2023-01-30T07:07:16.957Z,90.27
2023-01-30T07:12:49.153Z,90.01
2023-01-30T07:18:20.549Z,90.9
2023-01-30T07:23:52.146Z,90.81
2023-01-30T07:29:23.805Z,90.88
2023-01-30T07:34:55.529Z,91.23
2023-01-30T07:40:27.207Z,91.4
2023-01-30T07:46:03.434Z,91.6
2023-01-30T07:51:35.120Z,91.47
2023-01-30T07:57:06.802Z,91.42
2023-01-30T08:02:38.520Z,91.17
2023-01-30T08:08:10.258Z,92.28
2023-01-30T08:13:41.957Z,93.62
2023-01-30T08:19:13.791Z,93.66
2023-01-30T08:24:45.471Z,95.6
2023-01-30T08:30:17.963Z,95.58
2023-01-30T08:35:48.927Z,95.47
2023-01-30T08:41:20.517Z,94.84
2023-01-30T08:46:56.857Z,94.84
2023-01-30T08:52:28.617Z,94.31
2023-01-30T08:58:00.238Z,94.07
2023-01-30T09:03:32.014Z,93.53
2023-01-30T09:09:03.804Z,94.31
2023-01-30T09:14:35.417Z,94.45
2023-01-30T09:20:07.195Z,94.52
2023-01-30T09:25:38.934Z,94.31
2023-01-30T09:31:10.929Z,94.25
2023-01-30T09:36:42.333Z,94.52
2023-01-30T09:42:14.049Z,94.73
2023-01-30T09:47:50.173Z,95.07
2023-01-30T09:53:21.852Z,95.11
2023-01-30T09:58:53.565Z,95.76
2023-01-30T10:04:25.334Z,96.18
2023-01-30T10:09:57.424Z,95.12
2023-01-30T10:15:28.798Z,94.71
2023-01-30T10:21:00.484Z,94.86
2023-01-30T10:26:32.344Z,95.07
2023-01-30T10:32:03.907Z,95.01
2023-01-30T10:37:35.624Z,95.31
2023-01-30T10:43:07.787Z,96.29
2023-01-30T10:48:46.946Z,97.07
2023-01-30T10:54:15.581Z,98.5
2023-01-30T10:59:46.900Z,99.5
2023-01-30T11:05:19.385Z,99.51
2023-01-30T11:10:50.377Z,99.31
2023-01-30T11:16:22.121Z,99.73
2023-01-30T11:21:54.223Z,100.0
2023-01-30T11:27:25.551Z,100.0
2023-01-30T11:32:57.311Z,100.0
2023-01-30T11:38:29.104Z,100.0
2023-01-30T11:44:00.824Z,100.0
2023-01-30T11:50:11.148Z,100.0
2023-01-30T11:55:08.766Z,100.0
2023-01-30T12:00:40.330Z,100.0
2023-01-30T12:06:12.078Z,100.0
2023-01-30T12:11:43.795Z,100.0
2023-01-30T12:17:15.556Z,100.0
2023-01-30T12:22:47.241Z,100.0
2023-01-30T12:28:18.960Z,100.0
2023-01-30T12:33:50.643Z,100.0
2023-01-30T12:39:22.456Z,100.0
2023-01-30T12:44:54.180Z,100.0
2023-01-30T12:50:30.160Z,100.0
2023-01-30T12:56:02.047Z,100.0
2023-01-30T13:01:33.762Z,100.0
2023-01-30T13:07:05.444Z,100.0
2023-01-30T13:12:37.072Z,100.0
2023-01-30T13:18:08.831Z,100.0
2023-01-30T13:23:40.552Z,100.0
2023-01-30T13:29:12.352Z,100.0
2023-01-30T13:34:44.069Z,100.0
2023-01-30T13:40:15.976Z,100.0
2023-01-30T13:45:47.527Z,100.0
2023-01-30T13:51:23.627Z,100.0
2023-01-30T13:56:55.311Z,100.0
2023-01-30T14:02:27.289Z,100.0
2023-01-30T14:07:59.106Z,100.0
2023-01-30T14:13:32.454Z,100.0
2023-01-30T14:19:02.308Z,100.0
2023-01-30T14:24:34.044Z,100.0
2023-01-30T14:30:05.762Z,100.0
2023-01-30T14:35:37.515Z,100.0
2023-01-30T14:41:09.160Z,100.0
2023-01-30T14:46:41.107Z,100.0
2023-01-30T14:52:17.241Z,100.0
2023-01-30T14:57:49.231Z,100.0
2023-01-30T15:03:20.513Z,100.0
2023-01-30T15:08:52.304Z,100.0
2023-01-30T15:14:23.966Z,100.0
2023-01-30T15:19:55.664Z,100.0
2023-01-30T15:25:27.340Z,100.0
2023-01-30T15:30:59.157Z,100.0
2023-01-30T15:36:30.711Z,100.0
2023-01-30T15:42:02.557Z,100.0
2023-01-30T15:47:34.325Z,100.0
2023-01-30T15:53:12.352Z,100.0
2023-01-30T15:58:44.089Z,100.0
2023-01-30T16:04:15.796Z,100.0
2023-01-30T16:10:07.144Z,100.0
2023-01-30T16:16:19.728Z,100.0
2023-01-30T16:21:02.915Z,100.0
2023-01-30T16:26:22.871Z,100.0
2023-01-30T16:31:54.726Z,100.0
2023-01-30T16:37:26.308Z,100.0
2023-01-30T16:42:58.053Z,100.0
2023-01-30T16:48:30.061Z,100.0
2023-01-30T16:54:07.873Z,100.0
2023-01-30T16:59:40.204Z,100.0
2023-01-30T17:05:11.936Z,100.0
2023-01-30T17:10:43.612Z,100.0
2023-01-30T17:16:16.109Z,100.0
2023-01-30T17:21:47.103Z,100.0
2023-01-30T17:27:18.881Z,100.0
2023-01-30T17:32:50.511Z,100.0
2023-01-30T17:38:22.284Z,100.0
2023-01-30T17:43:54.056Z,100.0
2023-01-30T17:49:25.939Z,100.0
2023-01-30T17:55:01.835Z,100.0
2023-01-30T18:00:33.637Z,100.0
2023-01-30T18:06:05.280Z,100.0
2023-01-30T18:11:37.004Z,100.0
2023-01-30T18:17:08.786Z,100.0
2023-01-30T18:22:40.711Z,100.0
2023-01-30T18:28:12.309Z,100.0
2023-01-30T18:33:44.463Z,100.0
2023-01-30T18:39:15.599Z,100.0
2023-01-30T18:44:47.343Z,100.0
2023-01-30T18:50:19.933Z,100.0
2023-01-30T18:55:55.221Z,100.0
2023-01-30T19:01:27.226Z,100.0
2023-01-30T19:06:58.705Z,100.0
2023-01-30T19:12:30.573Z,100.0
2023-01-30T19:18:02.153Z,100.0
2023-01-30T19:23:34.045Z,100.0
2023-01-30T19:29:05.714Z,100.0
2023-01-30T19:34:37.388Z,100.0
2023-01-30T19:40:09.195Z,100.0
2023-01-30T19:45:40.917Z,100.0
2023-01-30T19:51:12.471Z,100.0
2023-01-30T19:56:48.749Z,100.0
2023-01-30T20:02:20.453Z,100.0
2023-01-30T20:07:52.177Z,100.0
2023-01-30T20:13:23.907Z,100.0
2023-01-30T20:18:55.456Z,100.0
2023-01-30T20:24:27.291Z,100.0
2023-01-30T20:29:58.997Z,100.0
2023-01-30T20:35:30.715Z,100.0
2023-01-30T20:41:02.497Z,100.0
2023-01-30T20:46:34.222Z,100.0
2023-01-30T20:52:05.918Z,100.0
2023-01-30T20:57:42.064Z,100.0
2023-01-30T21:03:13.741Z,100.0
2023-01-30T21:08:45.489Z,100.0
2023-01-30T21:14:17.315Z,100.0
2023-01-30T21:19:49.281Z,100.0
2023-01-30T21:25:21.249Z,100.0
2023-01-30T21:30:52.695Z,100.0
2023-01-30T21:36:24.234Z,100.0
2023-01-30T21:41:55.993Z,100.0
2023-01-30T21:47:27.695Z,100.0
2023-01-30T21:52:59.395Z,100.0
2023-01-30T21:58:37.965Z,100.0
2023-01-30T22:04:09.380Z,100.0
2023-01-30T22:09:41.084Z,100.0
2023-01-30T22:15:12.841Z,100.0
2023-01-30T22:20:44.429Z,100.0
2023-01-30T22:26:16.369Z,100.0
2023-01-30T22:31:48.632Z,100.0
2023-01-30T22:37:19.685Z,100.0
2023-01-30T22:42:51.409Z,100.0
2023-01-30T22:48:23.212Z,100.0
2023-01-30T22:53:54.817Z,100.0
2023-01-30T22:59:31.241Z,100.0
2023-01-30T23:05:02.725Z,100.0
2023-01-30T23:10:34.333Z,100.0
2023-01-30T23:16:06.109Z,100.0
2023-01-30T23:21:38.256Z,100.0
2023-01-30T23:27:09.927Z,100.0
2023-01-30T23:32:41.762Z,100.0
2023-01-30T23:38:13.473Z,99.75
2023-01-30T23:43:45.668Z,99.98
2023-01-30T23:49:16.987Z,100.0
2023-01-30T23:54:48.689Z,100.0
